Time;durP1;ratioP1;P1;durP2;ratioP2;P2;SDS_P1;SDS_P2;PMS_P1;PMS_P2;Temp;Humidity;BMP_temperature;BMP_pressure;BME280_temperature;BME280_humidity;BME280_pressure;Samples;Min_cycle;Max_cycle;Signal;HPM_P1;HPM_P2
2022/08/11 00:01:26;;;;;;;;;4.33;3.67;;;;;24.28;50.13;99212.19;4909388;28;102330;-78
2022/08/11 00:03:58;;;;;;;;;2.00;2.00;;;;;24.28;50.13;99213.00;4906700;28;102606;-78
2022/08/11 00:06:29;;;;;;;;;2.00;2.00;;;;;24.29;49.98;99213.84;4906319;28;104304;-79
2022/08/11 00:08:56;;;;;;;;;3.00;2.00;;;;;24.29;50.04;99224.91;4906825;28;104197;-78
2022/08/11 00:11:38;;;;;;;;;3.00;3.00;;;;;24.30;49.87;99209.97;4912680;28;102411;-78
2022/08/11 00:14:19;;;;;;;;;2.67;2.67;;;;;24.29;49.97;99208.31;4895221;28;102159;-78
2022/08/11 00:16:56;;;;;;;;;3.00;2.00;;;;;24.28;50.08;99213.00;4906722;28;108823;-78
2022/08/11 00:19:25;;;;;;;;;4.00;4.00;;;;;24.28;50.17;99210.25;4908768;28;103992;-79
2022/08/11 00:22:19;;;;;;;;;4.67;4.00;;;;;24.28;49.60;99212.19;4885791;28;102237;-78
2022/08/11 00:24:47;;;;;;;;;3.00;2.33;;;;;24.28;50.20;99212.19;4912917;28;102417;-78
2022/08/11 00:27:19;;;;;;;;;3.67;3.33;;;;;24.26;50.39;99204.19;4911498;28;104053;-78
2022/08/11 00:29:53;;;;;;;;;2.67;2.00;;;;;24.25;50.10;99207.22;4911512;28;102634;-78
2022/08/11 00:32:20;;;;;;;;;3.00;3.00;;;;;24.22;50.37;99207.78;4925540;28;102541;-78
2022/08/11 00:34:47;;;;;;;;;3.00;3.00;;;;;24.23;50.38;99206.66;4912056;28;102267;-78
2022/08/11 00:37:20;;;;;;;;;4.00;4.00;;;;;24.21;50.45;99206.09;4926515;28;105316;-78
2022/08/11 00:39:49;;;;;;;;;3.33;2.00;;;;;24.21;50.19;99211.63;4896793;28;102901;-78
2022/08/11 00:42:42;;;;;;;;;2.00;2.00;;;;;24.21;50.17;99206.94;4897734;28;103779;-78
2022/08/11 00:45:26;;;;;;;;;3.33;3.00;;;;;24.19;50.32;99202.78;4909970;28;103139;-78
2022/08/11 00:48:05;;;;;;;;;3.00;3.00;;;;;24.21;50.23;99203.34;4895170;28;104080;-78
2022/08/11 00:50:44;;;;;;;;;3.00;2.67;;;;;24.22;50.39;99210.53;4916719;28;102121;-78
2022/08/11 00:53:30;;;;;;;;;3.33;3.33;;;;;24.23;50.51;99203.88;4907080;28;106124;-79
2022/08/11 00:56:26;;;;;;;;;4.00;2.67;;;;;24.24;50.07;99205.53;4908347;28;102718;-78
2022/08/11 00:59:18;;;;;;;;;2.67;2.67;;;;;24.25;50.14;99204.44;4896910;28;108801;-78
2022/08/11 01:02:38;;;;;;;;;4.00;3.00;;;;;24.26;50.39;99200.59;4906502;28;102397;-78
2022/08/11 01:05:33;;;;;;;;;3.33;2.33;;;;;24.27;50.27;99200.28;4900344;28;102362;-78
2022/08/11 01:08:06;;;;;;;;;2.00;2.00;;;;;24.27;49.84;99202.25;4910576;28;102234;-78
2022/08/11 01:10:54;;;;;;;;;3.00;2.00;;;;;24.25;50.06;99202.53;4913999;28;108724;-78
2022/08/11 01:13:58;;;;;;;;;3.00;3.00;;;;;24.24;50.15;99211.06;4909358;28;102487;-78
2022/08/11 01:16:35;;;;;;;;;3.33;3.33;;;;;24.22;50.27;99207.78;4905394;28;102550;-78
2022/08/11 01:19:21;;;;;;;;;3.00;2.00;;;;;24.21;50.03;99201.41;4908695;28;102323;-78
2022/08/11 01:22:23;;;;;;;;;2.33;2.00;;;;;24.20;50.15;99204.44;4909352;28;109180;-78
2022/08/11 01:25:21;;;;;;;;;3.00;3.00;;;;;24.18;50.31;99207.47;4905279;28;102338;-78
2022/08/11 01:28:14;;;;;;;;;3.00;2.00;;;;;24.19;50.04;99202.78;4905642;28;102154;-78
2022/08/11 01:31:17;;;;;;;;;3.00;2.67;;;;;24.18;50.04;99195.63;4899285;28;102686;-78
2022/08/11 01:34:12;;;;;;;;;2.67;2.67;;;;;24.17;50.23;99202.25;4909056;28;108832;-78
2022/08/11 01:36:59;;;;;;;;;3.00;3.00;;;;;24.16;49.96;99195.03;4908881;28;102271;-78
2022/08/11 01:39:51;;;;;;;;;3.00;2.00;;;;;24.15;50.26;99196.09;4903175;28;102927;-78
2022/08/11 01:45:37;;;;;;;;;3.00;2.00;;;;;24.12;50.20;99194.75;4906493;28;108999;-78
2022/08/11 01:48:25;;;;;;;;;4.00;3.00;;;;;24.12;50.38;99200.25;4913248;28;102408;-78
2022/08/11 01:50:55;;;;;;;;;4.00;4.00;;;;;24.11;50.21;99195.00;4902614;28;102315;-78
2022/08/11 01:53:41;;;;;;;;;3.00;3.00;;;;;24.09;50.28;99198.03;4902742;28;102609;-78
2022/08/11 01:56:31;;;;;;;;;2.67;2.67;;;;;24.10;50.37;99187.81;4895563;28;108077;-78
2022/08/11 01:59:20;;;;;;;;;3.00;3.00;;;;;24.08;50.33;99187.28;4914541;28;102501;-78
2022/08/11 02:02:10;;;;;;;;;3.00;2.33;;;;;24.08;50.48;99192.81;4909307;28;102176;-78
2022/08/11 02:05:02;;;;;;;;;2.67;2.67;;;;;24.06;50.58;99192.22;4900238;28;102701;-78
2022/08/11 02:07:46;;;;;;;;;2.00;2.00;;;;;24.06;50.62;99197.75;4906584;28;104277;-79
2022/08/11 02:13:53;;;;;;;;;3.67;3.00;;;;;24.02;50.58;99190.03;4893214;28;103147;-78
2022/08/11 02:16:43;;;;;;;;;2.33;2.33;;;;;24.00;50.53;99189.47;4913521;28;102237;-78
2022/08/11 02:25:30;;;;;;;;;1.67;1.67;;;;;23.99;50.44;99189.75;4900916;28;102398;-79
2022/08/11 02:28:27;;;;;;;;;3.00;3.00;;;;;23.98;50.55;99185.31;4900964;28;103727;-78
2022/08/11 02:34:25;;;;;;;;;3.00;2.00;;;;;23.97;50.75;99192.78;4901910;28;102131;-78
2022/08/11 02:37:23;;;;;;;;;3.00;3.00;;;;;23.95;50.67;99186.72;4907740;28;102795;-78
2022/08/11 02:39:56;;;;;;;;;3.00;3.00;;;;;23.95;50.66;99185.88;4906610;28;102429;-78
2022/08/11 02:42:45;;;;;;;;;3.00;2.00;;;;;23.94;50.52;99184.22;4911155;28;104181;-78
2022/08/11 02:45:36;;;;;;;;;2.00;2.00;;;;;23.91;50.71;99185.56;4911606;28;102897;-78
2022/08/11 02:51:44;;;;;;;;;3.00;2.00;;;;;23.88;50.77;99191.66;4915612;28;105886;-79
2022/08/11 02:54:26;;;;;;;;;2.67;2.67;;;;;23.89;50.92;99186.97;4903373;28;108692;-78
2022/08/11 02:57:11;;;;;;;;;2.00;2.00;;;;;23.88;51.10;99191.66;4907739;28;102635;-78
2022/08/11 02:59:54;;;;;;;;;3.67;3.00;;;;;23.86;50.92;99193.03;4893244;28;102464;-78
2022/08/11 03:02:58;;;;;;;;;3.00;2.67;;;;;23.85;50.90;99197.72;4914576;28;103784;-78
2022/08/11 03:05:48;;;;;;;;;2.00;2.00;;;;;23.84;50.84;99193.31;4907710;28;109007;-78
2022/08/11 03:08:28;;;;;;;;;3.00;2.00;;;;;23.84;50.75;99201.59;4889462;28;102323;-78
2022/08/11 03:17:13;;;;;;;;;3.00;2.00;;;;;23.80;50.98;99191.34;4908596;28;108945;-79
2022/08/11 03:19:52;;;;;;;;;2.67;2.00;;;;;23.78;50.97;99191.63;4917775;28;102170;-78
2022/08/11 03:22:25;;;;;;;;;3.00;3.00;;;;;23.79;50.81;99197.97;4909245;28;102394;-78
2022/08/11 03:24:57;;;;;;;;;4.00;3.00;;;;;23.76;51.19;99196.59;4902214;28;104220;-78
2022/08/11 03:27:24;;;;;;;;;2.00;2.00;;;;;23.72;51.09;99208.47;4916063;28;103009;-78
2022/08/11 03:30:10;;;;;;;;;2.33;2.33;;;;;23.71;51.22;99209.56;4912424;28;102475;-78
2022/08/11 03:32:43;;;;;;;;;3.00;3.00;;;;;23.70;51.26;99211.50;4907730;28;102061;-78
2022/08/11 03:35:11;;;;;;;;;2.33;2.00;;;;;23.73;51.05;99213.69;4916930;28;102254;-78
2022/08/11 03:37:55;;;;;;;;;2.67;2.67;;;;;23.73;51.02;99210.13;4910570;28;104275;-78
2022/08/11 03:44:16;;;;;;;;;2.00;2.00;;;;;23.69;51.23;99201.53;4914059;28;102235;-78
2022/08/11 03:47:13;;;;;;;;;2.00;2.00;;;;;23.70;51.05;99205.97;4906259;28;103975;-78
2022/08/11 03:50:05;;;;;;;;;3.00;3.00;;;;;23.68;51.04;99204.59;4909746;28;109021;-78
2022/08/11 03:52:58;;;;;;;;;2.00;2.00;;;;;23.67;51.24;99198.25;4916775;28;103768;-78
2022/08/11 03:56:06;;;;;;;;;3.00;3.00;;;;;23.63;51.32;99196.28;4913846;28;102224;-78
2022/08/11 03:59:01;;;;;;;;;3.33;3.00;;;;;23.65;51.14;99197.66;4914269;28;102584;-78
2022/08/11 04:02:03;;;;;;;;;3.00;3.00;;;;;23.62;51.30;99191.84;4912215;28;108938;-78
2022/08/11 04:04:49;;;;;;;;;3.67;2.00;;;;;23.59;51.33;99193.25;4905666;28;102333;-78
2022/08/11 04:07:26;;;;;;;;;2.67;2.67;;;;;23.57;51.50;99198.19;4907294;28;102439;-79
2022/08/11 04:10:17;;;;;;;;;2.00;2.00;;;;;23.55;51.46;99192.09;4920238;28;102442;-78
2022/08/11 04:13:31;;;;;;;;;2.00;2.00;;;;;23.55;51.47;99192.09;4916554;28;108712;-78
2022/08/11 04:16:29;;;;;;;;;2.00;2.00;;;;;23.55;51.43;99183.81;4858259;28;102383;-78
2022/08/11 04:19:38;;;;;;;;;5.00;2.00;;;;;23.54;51.27;99183.00;4906209;28;102599;-78
2022/08/11 04:22:18;;;;;;;;;3.00;3.00;;;;;23.54;51.10;99190.47;4866821;28;102304;-79
2022/08/11 04:25:07;;;;;;;;;2.33;2.00;;;;;23.52;51.10;99198.16;4871733;28;108881;-78
2022/08/11 04:28:07;;;;;;;;;2.00;2.00;;;;;23.49;51.09;99196.78;4897671;28;103170;-78
2022/08/11 04:31:03;;;;;;;;;3.00;3.00;;;;;23.50;51.33;99194.88;4888936;28;102565;-78
2022/08/11 04:33:48;;;;;;;;;3.00;3.00;;;;;23.46;51.24;99199.28;4913411;28;102284;-78
2022/08/11 04:40:05;;;;;;;;;2.00;2.00;;;;;23.45;51.23;99192.09;4908116;28;105963;-79
2022/08/11 04:43:21;;;;;;;;;3.00;3.00;;;;;23.44;51.19;99185.72;4894617;28;102568;-78
2022/08/11 04:46:07;;;;;;;;;2.00;2.00;;;;;23.45;51.08;99195.69;4907482;28;102221;-78
2022/08/11 05:01:40;;;;;;;;;2.00;2.00;;;;;23.46;51.04;99199.28;4913210;28;108843;-78
2022/08/11 05:07:57;;;;;;;;;3.00;3.00;;;;;23.44;50.72;99195.94;4902189;28;105265;-79
2022/08/11 05:10:53;;;;;;;;;4.00;3.00;;;;;23.43;50.98;99205.28;4909153;28;102563;-78
2022/08/11 05:36:11;;;;;;;;;3.33;3.00;;;;;23.38;51.04;99205.25;4910486;28;108738;-78
2022/08/11 05:58:39;;;;;;;;;2.00;2.00;;;;;23.35;51.14;99216.84;4908672;28;108840;-78
2022/08/11 06:01:10;;;;;;;;;2.00;2.00;;;;;23.35;51.07;99217.69;4908682;28;102505;-79
2022/08/11 06:06:24;;;;;;;;;1.50;1.00;;;;;23.40;50.85;99217.72;4905845;28;102372;-78
2022/08/11 06:08:54;;;;;;;;;2.33;2.00;;;;;23.43;50.52;99227.38;4913902;28;106055;-79
2022/08/11 06:11:23;;;;;;;;;1.00;1.00;;;;;23.43;50.58;99224.59;4914133;28;102438;-78
2022/08/11 06:14:16;;;;;;;;;1.67;1.67;;;;;23.42;50.69;99233.97;4913240;28;102334;-78
2022/08/11 06:16:47;;;;;;;;;1.67;1.00;;;;;23.41;50.71;99229.59;4915511;28;102128;-78
2022/08/11 06:19:14;;;;;;;;;2.00;2.00;;;;;23.40;50.88;99234.28;4903142;28;109140;-78
2022/08/11 06:21:46;;;;;;;;;2.00;2.00;;;;;23.41;50.83;99233.19;4904526;28;102089;-78
2022/08/11 06:24:13;;;;;;;;;2.00;2.00;;;;;23.42;50.65;99228.47;4892601;28;103555;-78
2022/08/11 06:26:40;;;;;;;;;2.00;1.33;;;;;23.41;50.74;99230.41;4910892;28;102505;-78
2022/08/11 06:29:28;;;;;;;;;1.33;1.33;;;;;23.43;50.59;99228.19;4902449;28;110424;-78
2022/08/11 06:32:03;;;;;;;;;3.33;3.00;;;;;23.44;50.49;99240.09;4901842;28;102243;-78
2022/08/11 06:34:36;;;;;;;;;2.33;2.00;;;;;23.45;50.62;99234.31;4894397;28;102515;-78
2022/08/11 06:37:43;;;;;;;;;2.00;2.00;;;;;23.47;50.65;99240.38;4909776;28;102164;-78
2022/08/11 06:40:12;;;;;;;;;2.00;2.00;;;;;23.52;50.54;99234.91;4882813;28;108683;-78
2022/08/11 06:42:49;;;;;;;;;2.00;2.00;;;;;23.55;50.47;99233.50;4919140;28;102170;-78
2022/08/11 06:45:54;;;;;;;;;2.00;2.00;;;;;23.58;50.15;99235.75;4916633;28;102205;-79
2022/08/11 06:48:22;;;;;;;;;1.00;1.00;;;;;23.60;50.15;99229.94;4835478;28;102639;-78
2022/08/11 06:51:11;;;;;;;;;2.00;2.00;;;;;23.61;50.06;99232.44;4902072;28;104073;-78
2022/08/11 06:53:48;;;;;;;;;1.00;1.00;;;;;23.64;50.02;99231.09;4892176;28;102148;-78
2022/08/11 07:02:47;;;;;;;;;2.00;1.00;;;;;23.71;49.90;99224.19;4911356;28;108942;-78
2022/08/11 07:05:28;;;;;;;;;2.00;2.00;;;;;23.71;49.71;99223.38;4916651;28;102191;-78
2022/08/11 07:17:26;;;;;;;;;2.00;2.00;;;;;23.77;49.96;99216.78;4895716;28;102295;-78
2022/08/11 07:31:20;;;;;;;;;2.00;2.00;;;;;23.83;49.90;99205.44;4900860;28;102261;-78
2022/08/11 07:33:51;;;;;;;;;1.67;1.67;;;;;23.82;49.74;99203.78;4911514;28;102718;-78
2022/08/11 07:36:45;;;;;;;;;2.67;1.67;;;;;23.83;50.17;99207.38;4911880;28;104357;-78
2022/08/11 07:39:23;;;;;;;;;1.00;1.00;;;;;23.84;49.61;99206.28;4909991;28;102206;-78
2022/08/11 07:41:52;;;;;;;;;1.67;1.67;;;;;23.84;49.82;99195.22;4911503;28;102515;-79
2022/08/11 07:44:24;;;;;;;;;2.00;2.00;;;;;23.83;49.80;99205.44;4922245;28;102811;-78
2022/08/11 07:52:32;;;;;;;;;1.00;1.00;;;;;23.83;49.78;99210.97;4901384;28;102101;-78
2022/08/11 07:55:02;;;;;;;;;1.00;1.00;;;;;23.84;49.76;99209.03;4918500;28;102225;-78
2022/08/11 08:20:36;;;;;;;;;1.00;1.00;;;;;23.88;49.75;99197.19;4916713;28;110003;-78
2022/08/11 08:23:03;;;;;;;;;2.00;1.00;;;;;23.88;49.64;99194.41;4917947;28;102322;-78
2022/08/11 08:25:32;;;;;;;;;1.00;1.00;;;;;23.87;49.75;99189.97;4911192;28;102215;-78
2022/08/11 08:28:01;;;;;;;;;1.00;1.00;;;;;23.89;49.68;99187.78;4916340;28;102405;-78
2022/08/11 08:30:46;;;;;;;;;1.00;1.00;;;;;23.90;49.69;99188.63;4919514;28;104183;-78
2022/08/11 08:33:25;;;;;;;;;1.00;1.00;;;;;23.91;49.55;99193.06;4906418;28;102270;-78
2022/08/11 08:36:15;;;;;;;;;1.33;1.33;;;;;23.93;49.75;99188.91;4908234;28;102230;-78
2022/08/11 08:38:51;;;;;;;;;1.00;1.00;;;;;23.94;49.33;99181.44;4917239;28;103282;-78
2022/08/11 08:41:22;;;;;;;;;2.00;2.00;;;;;23.94;49.45;99185.03;4912440;28;108972;-78
2022/08/11 08:43:52;;;;;;;;;1.33;1.00;;;;;23.96;49.59;99188.34;4910374;28;102736;-78
2022/08/11 08:46:26;;;;;;;;;1.00;1.00;;;;;23.97;49.40;99183.66;4901899;28;102299;-78
2022/08/11 08:48:54;;;;;;;;;2.00;2.00;;;;;23.98;49.47;99179.78;4921383;28;102183;-78
2022/08/11 08:51:33;;;;;;;;;1.33;1.33;;;;;23.98;49.33;99179.78;4909431;28;103815;-78
2022/08/11 08:54:22;;;;;;;;;1.00;1.00;;;;;24.00;49.47;99174.84;4907556;28;102202;-78
2022/08/11 08:56:51;;;;;;;;;2.00;1.67;;;;;24.00;49.56;99170.13;4911024;28;102384;-78
2022/08/11 08:59:20;;;;;;;;;1.00;1.00;;;;;24.00;49.57;99172.88;4917611;28;102406;-78
2022/08/11 09:01:58;;;;;;;;;1.00;1.00;;;;;24.00;49.40;99170.13;4902596;28;104064;-78
2022/08/11 09:04:25;;;;;;;;;1.00;1.00;;;;;24.00;49.77;99169.31;4909902;28;102021;-78
2022/08/11 09:06:53;;;;;;;;;1.00;1.00;;;;;24.01;49.39;99163.50;4917497;28;102240;-78
2022/08/11 09:09:20;;;;;;;;;1.00;1.00;;;;;24.02;49.51;99167.09;4902022;28;102306;-78
2022/08/11 09:11:52;;;;;;;;;1.00;1.00;;;;;24.02;49.50;99165.16;4911858;28;104066;-78
2022/08/11 09:14:24;;;;;;;;;1.00;1.00;;;;;24.04;49.44;99158.53;4911360;28;102564;-78
2022/08/11 09:16:51;;;;;;;;;1.00;0.00;;;;;24.04;49.45;99161.31;4917262;28;102389;-78
2022/08/11 09:19:19;;;;;;;;;1.00;1.00;;;;;24.06;49.60;99162.66;4898818;28;102728;-78
2022/08/11 09:26:58;;;;;;;;;2.00;2.00;;;;;24.06;49.27;99153.53;4907951;28;104023;-78
2022/08/11 09:27:24;;;;;;;;;1.00;1.00;;;;;24.07;49.51;99160.75;4911341;28;102398;-78
2022/08/11 09:29:51;;;;;;;;;1.00;1.00;;;;;24.08;49.46;99156.88;4901767;28;102194;-78
2022/08/11 09:32:21;;;;;;;;;0.33;0.33;;;;;24.07;49.24;99156.03;4914138;28;104164;-78
2022/08/11 09:34:50;;;;;;;;;1.00;1.00;;;;;24.10;49.09;99154.66;4894512;28;102398;-78
2022/08/11 09:40:28;;;;;;;;;1.33;1.33;;;;;24.09;49.51;99153.03;4907528;28;103306;-78
2022/08/11 09:45:52;;;;;;;;;1.00;1.00;;;;;24.09;49.31;99147.50;4910095;28;102605;-78
2022/08/11 09:48:26;;;;;;;;;1.00;1.00;;;;;24.10;49.28;99140.84;4909546;28;102105;-78
2022/08/11 09:50:55;;;;;;;;;1.00;1.00;;;;;24.10;49.22;99143.59;4913629;28;102257;-78
2022/08/11 09:53:24;;;;;;;;;1.00;1.00;;;;;24.10;49.38;99147.19;4915201;28;104282;-78
2022/08/11 09:59:03;;;;;;;;;0.33;0.33;;;;;24.12;49.37;99141.41;4903367;28;102226;-78
2022/08/11 10:01:33;;;;;;;;;1.00;1.00;;;;;24.13;49.25;99138.38;4917028;28;102340;-78
2022/08/11 10:04:04;;;;;;;;;0.00;0.00;;;;;24.14;49.26;99139.19;4911719;28;104187;-78
2022/08/11 10:09:21;;;;;;;;;0.33;0.00;;;;;24.14;49.46;99150.22;4897508;28;102092;-78
2022/08/11 10:11:56;;;;;;;;;1.00;1.00;;;;;24.15;49.13;99147.19;4918697;28;102342;-78
2022/08/11 10:17:11;;;;;;;;;1.67;1.00;;;;;24.16;49.13;99137.00;4909853;28;102475;-78
2022/08/11 10:19:38;;;;;;;;;1.00;1.00;;;;;24.15;49.24;99129.78;4901162;28;102132;-78
2022/08/11 10:27:41;;;;;;;;;1.00;1.00;;;;;24.17;49.10;99122.09;4904624;28;102625;-78
2022/08/11 10:36:05;;;;;;;;;1.00;1.00;;;;;24.18;49.18;99118.22;4912542;28;109537;-78
2022/08/11 10:38:44;;;;;;;;;1.00;1.00;;;;;24.18;49.47;99113.50;4888111;28;102340;-78
2022/08/11 10:43:57;;;;;;;;;2.67;1.00;;;;;24.18;49.35;99113.50;4918832;28;102236;-78
2022/08/11 10:49:14;;;;;;;;;1.00;1.00;;;;;24.20;49.25;99107.72;4917942;28;102142;-78
2022/08/11 10:59:59;;;;;;;;;0.00;0.00;;;;;24.19;49.41;99098.59;4917429;28;102542;-78
2022/08/11 11:02:26;;;;;;;;;1.00;1.00;;;;;24.21;49.11;99096.41;4908545;28;102353;-78
2022/08/11 11:05:08;;;;;;;;;0.00;0.00;;;;;24.20;49.47;99082.84;4902879;28;102605;-78
2022/08/11 11:07:51;;;;;;;;;0.67;0.67;;;;;24.20;49.08;99080.91;4910452;28;104066;-78
2022/08/11 11:10:20;;;;;;;;;1.00;1.00;;;;;24.21;49.49;99074.28;4907715;28;103230;-78
2022/08/11 11:18:24;;;;;;;;;1.00;1.00;;;;;24.24;49.22;99064.59;4898514;28;109090;-78
2022/08/11 11:21:07;;;;;;;;;0.00;0.00;;;;;24.23;49.28;99052.72;4911266;28;102540;-78
2022/08/11 11:23:54;;;;;;;;;1.00;1.00;;;;;24.24;49.13;99042.47;4916425;28;102515;-78
2022/08/11 11:26:44;;;;;;;;;1.00;1.00;;;;;24.26;49.33;99045.81;4908605;28;102306;-78
2022/08/11 11:29:34;;;;;;;;;1.00;1.00;;;;;24.25;49.21;99039.44;4917388;28;104075;-78
2022/08/11 11:32:14;;;;;;;;;0.00;0.00;;;;;24.26;49.11;99043.06;4904557;28;102442;-78
2022/08/11 11:35:03;;;;;;;;;1.00;1.00;;;;;24.26;49.19;99040.28;4914238;28;102030;-78
2022/08/11 11:37:33;;;;;;;;;0.00;0.00;;;;;24.27;49.12;99045.50;4900350;28;102237;-78
2022/08/11 11:40:00;;;;;;;;;0.67;0.33;;;;;24.26;49.48;99035.59;4913693;28;104244;-78
2022/08/11 11:42:27;;;;;;;;;1.00;1.00;;;;;24.27;49.28;99030.91;4916370;28;102257;-78
2022/08/11 11:44:54;;;;;;;;;0.67;0.67;;;;;24.28;49.31;99029.75;4911496;28;102279;-78
2022/08/11 11:47:25;;;;;;;;;0.33;0.00;;;;;24.28;49.06;99025.06;4920507;28;102384;-78
2022/08/11 11:49:53;;;;;;;;;0.67;0.33;;;;;24.30;49.10;99016.50;4912962;28;104526;-78
2022/08/11 11:52:20;;;;;;;;;0.67;0.67;;;;;24.29;49.10;99018.44;4910253;28;102522;-78
2022/08/11 11:54:49;;;;;;;;;0.33;0.33;;;;;24.30;48.92;99017.34;4927934;28;102526;-78
2022/08/11 12:03:03;;;;;;;;;1.00;0.00;;;;;24.32;49.15;99022.56;4902394;28;102421;-78
2022/08/11 12:05:35;;;;;;;;;3.00;0.67;;;;;24.33;49.22;99016.75;4901164;28;102374;-78
2022/08/11 12:08:11;;;;;;;;;1.00;1.00;;;;;24.33;49.04;99027.00;4915714;28;102375;-78
2022/08/11 12:10:42;;;;;;;;;0.33;0.33;;;;;24.32;49.24;99020.63;4909596;28;104280;-78
2022/08/11 12:15:54;;;;;;;;;1.00;0.33;;;;;24.33;49.14;99015.94;4915689;28;102291;-78
2022/08/11 12:18:42;;;;;;;;;1.00;0.00;;;;;24.33;49.19;99027.81;4912225;28;102436;-78
2022/08/11 12:21:09;;;;;;;;;0.00;0.00;;;;;24.34;49.30;99020.34;4912655;28;104077;-78
2022/08/11 12:27:19;;;;;;;;;2.00;2.00;;;;;24.35;49.13;99009.03;4906678;28;102071;-78
2022/08/11 12:29:44;;;;;;;;;1.00;1.00;;;;;24.38;49.23;99002.94;4906526;28;102564;-78
2022/08/11 12:32:13;;;;;;;;;1.00;1.00;;;;;24.40;49.16;99006.25;4894608;28;108894;-78
2022/08/11 12:34:40;;;;;;;;;0.00;0.00;;;;;24.41;48.91;99001.53;4916160;28;103490;-78
2022/08/11 12:37:11;;;;;;;;;0.00;0.00;;;;;24.41;49.03;99005.13;4911018;28;102348;-78
2022/08/11 12:45:50;;;;;;;;;0.00;0.00;;;;;24.45;48.86;98992.41;4913412;28;105258;-78
2022/08/11 12:54:38;;;;;;;;;0.00;0.00;;;;;24.52;48.63;98970.00;4899257;28;110340;-78
2022/08/11 13:05:43;;;;;;;;;0.00;0.00;;;;;24.60;48.62;98966.63;4917342;28;104159;-78
2022/08/11 13:08:13;;;;;;;;;0.00;0.00;;;;;24.61;48.43;98959.16;4898481;28;102444;-78
2022/08/11 13:13:26;;;;;;;;;1.00;0.00;;;;;24.66;48.68;98951.69;4901775;28;102258;-78
2022/08/11 13:16:13;;;;;;;;;0.67;0.67;;;;;24.68;48.40;98957.72;4914886;28;110141;-78
2022/08/11 13:18:41;;;;;;;;;1.00;1.00;;;;;24.69;48.58;98950.28;4913252;28;102155;-78
2022/08/11 13:21:12;;;;;;;;;2.00;1.00;;;;;24.72;48.45;98950.53;4911137;28;102606;-78
2022/08/11 13:23:51;;;;;;;;;0.33;0.33;;;;;24.74;48.37;98945.53;4907600;28;103180;-78
2022/08/11 13:26:35;;;;;;;;;0.00;0.00;;;;;24.76;48.55;98943.34;4911285;28;108826;-78
2022/08/11 13:29:19;;;;;;;;;0.00;0.00;;;;;24.76;48.63;98932.28;4916767;28;102056;-78
2022/08/11 13:31:47;;;;;;;;;0.00;0.00;;;;;24.77;48.36;98950.50;4918311;28;102165;-78
2022/08/11 13:34:17;;;;;;;;;0.00;0.00;;;;;24.77;48.36;98958.78;4897675;28;102247;-78
2022/08/11 13:36:46;;;;;;;;;0.00;0.00;;;;;24.78;48.19;98968.75;4911883;28;109175;-78
2022/08/11 13:39:13;;;;;;;;;0.00;0.00;;;;;24.77;48.23;98975.38;4906655;28;102399;-78
2022/08/11 13:41:43;;;;;;;;;0.00;0.00;;;;;24.78;48.66;99026.84;4892126;28;102158;-78
2022/08/11 13:44:12;;;;;;;;;0.67;0.33;;;;;24.78;48.53;99013.00;4927745;28;102840;-78
2022/08/11 13:46:44;;;;;;;;;0.00;0.00;;;;;24.78;48.27;99032.38;4913325;28;109042;-78
2022/08/11 13:49:17;;;;;;;;;0.00;0.00;;;;;24.79;48.41;99025.75;4895597;28;102728;-78
2022/08/11 13:51:44;;;;;;;;;1.00;0.00;;;;;24.76;48.32;99033.78;4912654;28;102650;-78
2022/08/11 13:54:17;;;;;;;;;0.00;0.00;;;;;24.78;48.20;99050.91;4911367;28;102643;-78
2022/08/11 13:56:47;;;;;;;;;0.00;0.00;;;;;24.77;48.19;99054.78;4914302;28;109122;-78
2022/08/11 13:59:14;;;;;;;;;0.00;0.00;;;;;24.77;48.85;99069.44;4897951;28;102752;-78
2022/08/11 14:01:47;;;;;;;;;1.00;1.00;;;;;24.78;48.60;99076.63;4911393;28;102281;-77
2022/08/11 14:04:39;;;;;;;;;0.00;0.00;;;;;24.78;48.29;99079.41;4912736;28;103127;-77
2022/08/11 14:07:07;;;;;;;;;1.00;0.00;;;;;24.77;48.25;99074.97;4909924;28;102193;-77
2022/08/11 14:09:36;;;;;;;;;0.00;0.00;;;;;24.75;48.15;99068.91;4894798;28;102165;-77
2022/08/11 14:15:03;;;;;;;;;2.33;2.00;;;;;24.76;48.31;99083.56;4910159;28;102654;-78
2022/08/11 14:17:34;;;;;;;;;1.00;1.00;;;;;24.71;48.51;99073.34;4888653;28;104225;-78
2022/08/11 14:20:14;;;;;;;;;1.00;1.00;;;;;24.72;48.50;99082.47;4899820;28;102222;-78
2022/08/11 14:23:01;;;;;;;;;0.00;0.00;;;;;24.71;48.27;99072.53;4907083;28;102296;-78
2022/08/11 14:25:28;;;;;;;;;1.00;1.00;;;;;24.72;48.28;99077.75;4912575;28;102989;-78
2022/08/11 14:28:15;;;;;;;;;0.00;0.00;;;;;24.70;48.24;99079.97;4901577;28;110075;-78
2022/08/11 14:31:01;;;;;;;;;1.00;1.00;;;;;24.66;48.67;99076.13;4922049;28;102231;-79
2022/08/11 14:33:30;;;;;;;;;2.33;1.00;;;;;24.60;48.28;99054.28;4912380;28;102025;-79
2022/08/11 14:36:17;;;;;;;;;2.00;1.00;;;;;24.63;48.65;99050.97;4909459;28;102258;-79
2022/08/11 14:38:44;;;;;;;;;2.00;2.00;;;;;24.60;48.75;99044.06;4911428;28;109008;-79
2022/08/11 14:49:28;;;;;;;;;1.00;1.00;;;;;24.36;48.43;99027.25;4910515;28;107891;-78
2022/08/11 14:51:56;;;;;;;;;1.33;1.33;;;;;24.37;48.76;99033.63;4894769;28;102453;-78
2022/08/11 14:57:10;;;;;;;;;1.00;1.00;;;;;24.36;48.63;99021.72;4912299;28;102233;-78
2022/08/11 14:59:37;;;;;;;;;1.00;1.00;;;;;24.37;48.46;99022.56;4912091;28;104071;-79
2022/08/11 15:04:50;;;;;;;;;2.00;2.00;;;;;24.37;48.87;99034.44;4911665;28;102478;-79
2022/08/11 15:07:24;;;;;;;;;2.00;2.00;;;;;24.38;48.78;99032.50;4915608;28;102626;-79
2022/08/11 15:09:51;;;;;;;;;2.67;2.33;;;;;24.38;49.20;99043.56;4914655;28;109030;-80
2022/08/11 15:12:39;;;;;;;;;2.00;2.00;;;;;24.39;49.04;99040.53;4911907;28;103223;-79
2022/08/11 15:17:53;;;;;;;;;1.67;1.00;;;;;24.28;49.77;99062.94;4914972;28;102487;-81
2022/08/11 15:25:59;;;;;;;;;1.00;1.00;;;;;24.03;49.13;99052.72;4921605;28;102314;-81
2022/08/11 15:39:36;;;;;;;;;0.00;0.00;;;;;23.76;49.73;99044.72;4899689;28;102599;-80
2022/08/11 15:47:48;;;;;;;;;1.00;1.00;;;;;23.71;50.43;99036.44;4911540;28;102647;-81
2022/08/11 15:50:17;;;;;;;;;0.00;0.00;;;;;23.72;50.35;99035.31;4898840;28;102258;-82
2022/08/11 15:52:51;;;;;;;;;1.00;1.00;;;;;23.68;50.27;99030.63;4918850;28;109065;-81
2022/08/11 15:55:18;;;;;;;;;0.00;0.00;;;;;23.66;50.47;99027.31;4884770;28;104595;-80
2022/08/11 16:06:35;;;;;;;;;0.00;0.00;;;;;23.62;51.10;99040.84;4909205;28;102790;-80
2022/08/11 16:09:04;;;;;;;;;1.67;1.00;;;;;23.60;51.46;99051.31;4911414;28;102277;-81
2022/08/11 16:11:43;;;;;;;;;0.00;0.00;;;;;23.55;51.34;99049.38;4914113;28;102560;-82
2022/08/11 16:16:56;;;;;;;;;1.00;1.00;;;;;23.64;50.89;99046.91;4915820;28;102441;-81
2022/08/11 16:19:24;;;;;;;;;0.00;0.00;;;;;23.69;50.74;99043.31;4902184;28;103034;-83
2022/08/11 16:21:51;;;;;;;;;1.00;1.00;;;;;23.68;50.77;99036.16;4903026;28;102598;-81
2022/08/11 16:24:18;;;;;;;;;0.00;0.00;;;;;23.74;50.72;99029.50;4895977;28;104062;-81
2022/08/11 16:27:05;;;;;;;;;0.00;0.00;;;;;23.78;50.33;99025.91;4908084;28;102526;-81
2022/08/11 16:29:42;;;;;;;;;1.00;1.00;;;;;23.84;50.40;99035.03;4919481;28;102228;-81
2022/08/11 16:32:19;;;;;;;;;0.00;0.00;;;;;23.87;50.20;99028.94;4919166;28;102448;-81
2022/08/11 16:40:28;;;;;;;;;0.00;0.00;;;;;23.93;49.71;99022.31;4910075;28;102475;-80
2022/08/11 16:48:34;;;;;;;;;1.00;1.00;;;;;23.84;50.61;99024.81;4909479;28;102492;-79
2022/08/11 16:51:06;;;;;;;;;1.00;0.33;;;;;23.76;51.28;99017.09;4907968;28;102248;-79
2022/08/11 16:53:33;;;;;;;;;1.00;1.00;;;;;23.70;51.14;99023.72;4890477;28;102421;-79
2022/08/11 16:56:23;;;;;;;;;0.67;0.67;;;;;23.64;50.86;99016.53;4892524;28;110252;-80
2022/08/11 17:01:42;;;;;;;;;0.67;0.67;;;;;23.53;50.99;99007.44;4897174;28;102620;-82
2022/08/11 17:13:43;;;;;;;;;1.00;1.00;;;;;23.40;51.23;99012.63;4908000;28;102465;-80
2022/08/11 17:16:11;;;;;;;;;1.00;0.33;;;;;23.39;51.16;99005.44;4924814;28;102603;-80
2022/08/11 17:18:56;;;;;;;;;1.00;1.00;;;;;23.37;51.07;99002.94;4904909;28;104162;-80
2022/08/11 17:21:34;;;;;;;;;1.00;1.00;;;;;23.35;50.75;98993.31;4907552;28;102399;-79
2022/08/11 17:24:11;;;;;;;;;0.67;0.67;;;;;23.34;50.68;99003.50;4907836;28;102008;-80